sensor_id;sensor_type;location;lat;lon;timestamp;pressure;altitude;pressure_sealevel;temperature;humidity
53262;BME280;39658;51.090;-1.786;2023-02-26T00:01:02;101597.72;;;-0.99;100.00
53262;BME280;39658;51.090;-1.786;2023-02-26T00:03:31;101608.94;;;-1.02;100.00
53262;BME280;39658;51.090;-1.786;2023-02-26T00:05:58;101610.69;;;-1.01;100.00
53262;BME280;39658;51.090;-1.786;2023-02-26T00:08:25;101613.25;;;-0.96;100.00
53262;BME280;39658;51.090;-1.786;2023-02-26T00:10:52;101610.69;;;-0.99;100.00
53262;BME280;39658;51.090;-1.786;2023-02-26T00:13:20;101619.31;;;-1.08;100.00
53262;BME280;39658;51.090;-1.786;2023-02-26T00:15:49;101615.03;;;-1.17;100.00
53262;BME280;39658;51.090;-1.786;2023-02-26T00:18:19;101623.69;;;-1.18;100.00
53262;BME280;39658;51.090;-1.786;2023-02-26T00:20:48;101628.88;;;-1.24;100.00
53262;BME280;39658;51.090;-1.786;2023-02-26T00:23:15;101622.81;;;-1.26;100.00
53262;BME280;39658;51.090;-1.786;2023-02-26T00:25:43;101629.75;;;-1.34;100.00
53262;BME280;39658;51.090;-1.786;2023-02-26T00:28:11;101629.75;;;-1.34;100.00
53262;BME280;39658;51.090;-1.786;2023-02-26T00:30:39;101631.47;;;-1.32;100.00
53262;BME280;39658;51.090;-1.786;2023-02-26T00:33:06;101627.16;;;-1.42;100.00
53262;BME280;39658;51.090;-1.786;2023-02-26T00:35:33;101628.91;;;-1.56;100.00
53262;BME280;39658;51.090;-1.786;2023-02-26T00:38:03;101629.78;;;-1.64;100.00
53262;BME280;39658;51.090;-1.786;2023-02-26T00:40:37;101626.34;;;-1.67;100.00
53262;BME280;39658;51.090;-1.786;2023-02-26T00:43:06;101617.72;;;-1.63;100.00
53262;BME280;39658;51.090;-1.786;2023-02-26T00:45:34;101628.06;;;-1.58;100.00
53262;BME280;39658;51.090;-1.786;2023-02-26T00:48:16;101627.19;;;-1.60;100.00
53262;BME280;39658;51.090;-1.786;2023-02-26T00:50:54;101621.16;;;-1.58;100.00
53262;BME280;39658;51.090;-1.786;2023-02-26T00:53:28;101616.84;;;-1.50;100.00
53262;BME280;39658;51.090;-1.786;2023-02-26T00:55:57;101614.25;;;-1.54;100.00
53262;BME280;39658;51.090;-1.786;2023-02-26T00:58:23;101622.03;;;-1.60;100.00
53262;BME280;39658;51.090;-1.786;2023-02-26T01:00:50;101620.31;;;-1.69;100.00
53262;BME280;39658;51.090;-1.786;2023-02-26T01:03:17;101623.75;;;-1.72;100.00
53262;BME280;39658;51.090;-1.786;2023-02-26T01:05:45;101615.16;;;-1.66;100.00
53262;BME280;39658;51.090;-1.786;2023-02-26T01:08:15;101622.03;;;-1.77;100.00
53262;BME280;39658;51.090;-1.786;2023-02-26T01:10:46;101619.44;;;-1.82;100.00
53262;BME280;39658;51.090;-1.786;2023-02-26T01:13:14;101617.75;;;-1.89;100.00
53262;BME280;39658;51.090;-1.786;2023-02-26T01:15:47;101622.03;;;-1.96;100.00
53262;BME280;39658;51.090;-1.786;2023-02-26T01:18:17;101622.03;;;-2.04;100.00
53262;BME280;39658;51.090;-1.786;2023-02-26T01:20:47;101616.84;;;-2.05;100.00
53262;BME280;39658;51.090;-1.786;2023-02-26T01:23:17;101615.16;;;-2.12;100.00
53262;BME280;39658;51.090;-1.786;2023-02-26T01:25:49;101628.91;;;-2.24;100.00
53262;BME280;39658;51.090;-1.786;2023-02-26T01:28:17;101622.00;;;-2.36;100.00
53262;BME280;39658;51.090;-1.786;2023-02-26T01:30:44;101628.03;;;-2.39;100.00
53262;BME280;39658;51.090;-1.786;2023-02-26T01:33:17;101634.03;;;-2.41;100.00
53262;BME280;39658;51.090;-1.786;2023-02-26T01:35:50;101634.03;;;-2.46;100.00
53262;BME280;39658;51.090;-1.786;2023-02-26T01:38:23;101628.84;;;-2.46;100.00
53262;BME280;39658;51.090;-1.786;2023-02-26T01:41:20;101628.88;;;-2.41;100.00
53262;BME280;39658;51.090;-1.786;2023-02-26T01:43:58;101634.00;;;-2.47;100.00
53262;BME280;39658;51.090;-1.786;2023-02-26T01:46:32;101628.88;;;-2.38;100.00
53262;BME280;39658;51.090;-1.786;2023-02-26T01:49:00;101628.88;;;-2.30;100.00
53262;BME280;39658;51.090;-1.786;2023-02-26T01:51:45;101631.50;;;-2.13;100.00
53262;BME280;39658;51.090;-1.786;2023-02-26T01:54:13;101633.22;;;-2.11;100.00
53262;BME280;39658;51.090;-1.786;2023-02-26T01:56:42;101632.34;;;-2.08;100.00
53262;BME280;39658;51.090;-1.786;2023-02-26T01:59:13;101641.84;;;-2.09;100.00
53262;BME280;39658;51.090;-1.786;2023-02-26T02:01:41;101653.03;;;-2.05;100.00
53262;BME280;39658;51.090;-1.786;2023-02-26T02:04:10;101657.34;;;-1.98;100.00
53262;BME280;39658;51.090;-1.786;2023-02-26T02:06:38;101663.38;;;-2.04;100.00
53262;BME280;39658;51.090;-1.786;2023-02-26T02:09:06;101666.84;;;-2.03;100.00
53262;BME280;39658;51.090;-1.786;2023-02-26T02:11:34;101666.84;;;-1.95;100.00
53262;BME280;39658;51.090;-1.786;2023-02-26T02:14:11;101670.28;;;-1.98;100.00
53262;BME280;39658;51.090;-1.786;2023-02-26T02:16:47;101667.69;;;-2.01;100.00
53262;BME280;39658;51.090;-1.786;2023-02-26T02:19:38;101656.50;;;-1.89;100.00
53262;BME280;39658;51.090;-1.786;2023-02-26T02:22:23;101660.78;;;-2.01;100.00
53262;BME280;39658;51.090;-1.786;2023-02-26T02:24:57;101659.94;;;-2.01;100.00
53262;BME280;39658;51.090;-1.786;2023-02-26T02:27:35;101649.59;;;-1.98;100.00
53262;BME280;39658;51.090;-1.786;2023-02-26T02:30:24;101644.44;;;-1.92;100.00
53262;BME280;39658;51.090;-1.786;2023-02-26T02:33:00;101653.03;;;-1.93;100.00
53262;BME280;39658;51.090;-1.786;2023-02-26T02:35:31;101651.34;;;-1.89;100.00
53262;BME280;39658;51.090;-1.786;2023-02-26T02:38:05;101657.34;;;-1.98;100.00
53262;BME280;39658;51.090;-1.786;2023-02-26T02:40:36;101650.44;;;-2.02;100.00
53262;BME280;39658;51.090;-1.786;2023-02-26T02:43:08;101657.34;;;-2.01;100.00
53262;BME280;39658;51.090;-1.786;2023-02-26T02:45:40;101656.50;;;-2.03;100.00
53262;BME280;39658;51.090;-1.786;2023-02-26T02:48:15;101665.09;;;-2.01;100.00
53262;BME280;39658;51.090;-1.786;2023-02-26T02:50:47;101659.09;;;-2.03;100.00
53262;BME280;39658;51.090;-1.786;2023-02-26T02:53:18;101653.91;;;-2.15;100.00
53262;BME280;39658;51.090;-1.786;2023-02-26T02:55:49;101659.94;;;-2.12;100.00
53262;BME280;39658;51.090;-1.786;2023-02-26T02:58:22;101659.06;;;-2.15;100.00
53262;BME280;39658;51.090;-1.786;2023-02-26T03:00:54;101668.50;;;-2.19;100.00
53262;BME280;39658;51.090;-1.786;2023-02-26T03:03:27;101674.56;;;-2.23;100.00
53262;BME280;39658;51.090;-1.786;2023-02-26T03:05:55;101665.03;;;-2.33;100.00
53262;BME280;39658;51.090;-1.786;2023-02-26T03:08:26;101670.22;;;-2.26;100.00
53262;BME280;39658;51.090;-1.786;2023-02-26T03:10:54;101677.13;;;-2.23;100.00
53262;BME280;39658;51.090;-1.786;2023-02-26T03:13:23;101673.66;;;-2.22;100.00
53262;BME280;39658;51.090;-1.786;2023-02-26T03:15:57;101681.47;;;-2.07;100.00
53262;BME280;39658;51.090;-1.786;2023-02-26T03:18:34;101683.19;;;-2.07;100.00
53262;BME280;39658;51.090;-1.786;2023-02-26T03:21:08;101684.91;;;-2.17;100.00
53262;BME280;39658;51.090;-1.786;2023-02-26T03:23:41;101678.03;;;-2.06;100.00
53262;BME280;39658;51.090;-1.786;2023-02-26T03:26:13;101684.03;;;-2.07;100.00
53262;BME280;39658;51.090;-1.786;2023-02-26T03:28:44;101684.03;;;-2.10;100.00
53262;BME280;39658;51.090;-1.786;2023-02-26T03:31:18;101684.03;;;-2.05;100.00
53262;BME280;39658;51.090;-1.786;2023-02-26T03:33:52;101680.59;;;-2.09;100.00
53262;BME280;39658;51.090;-1.786;2023-02-26T03:36:22;101688.38;;;-2.01;100.00
53262;BME280;39658;51.090;-1.786;2023-02-26T03:38:54;101689.22;;;-2.05;100.00
53262;BME280;39658;51.090;-1.786;2023-02-26T03:41:26;101681.44;;;-2.13;100.00
53262;BME280;39658;51.090;-1.786;2023-02-26T03:43:58;101692.69;;;-2.06;100.00
53262;BME280;39658;51.090;-1.786;2023-02-26T03:46:30;101696.09;;;-2.09;100.00
53262;BME280;39658;51.090;-1.786;2023-02-26T03:49:06;101696.13;;;-2.04;100.00
53262;BME280;39658;51.090;-1.786;2023-02-26T03:51:35;101703.88;;;-2.03;100.00
53262;BME280;39658;51.090;-1.786;2023-02-26T03:54:05;101703.00;;;-2.12;100.00
53262;BME280;39658;51.090;-1.786;2023-02-26T03:56:38;101706.44;;;-2.12;100.00
53262;BME280;39658;51.090;-1.786;2023-02-26T03:59:06;101699.50;;;-2.19;100.00
53262;BME280;39658;51.090;-1.786;2023-02-26T04:01:39;101713.34;;;-2.09;100.00
53262;BME280;39658;51.090;-1.786;2023-02-26T04:04:12;101715.03;;;-2.07;100.00
53262;BME280;39658;51.090;-1.786;2023-02-26T04:06:41;101722.81;;;-2.05;100.00
53262;BME280;39658;51.090;-1.786;2023-02-26T04:09:08;101727.13;;;-2.06;100.00
53262;BME280;39658;51.090;-1.786;2023-02-26T04:11:35;101733.13;;;-2.13;100.00
53262;BME280;39658;51.090;-1.786;2023-02-26T04:14:03;101723.66;;;-2.17;100.00
53262;BME280;39658;51.090;-1.786;2023-02-26T04:16:29;101726.25;;;-2.08;100.00
53262;BME280;39658;51.090;-1.786;2023-02-26T04:18:56;101733.16;;;-2.04;100.00
53262;BME280;39658;51.090;-1.786;2023-02-26T04:21:24;101734.03;;;-2.08;100.00
53262;BME280;39658;51.090;-1.786;2023-02-26T04:23:51;101729.69;;;-2.09;100.00
53262;BME280;39658;51.090;-1.786;2023-02-26T04:26:18;101728.00;;;-1.99;100.00
53262;BME280;39658;51.090;-1.786;2023-02-26T04:28:45;101738.31;;;-1.99;100.00
53262;BME280;39658;51.090;-1.786;2023-02-26T04:31:11;101736.63;;;-1.99;100.00
53262;BME280;39658;51.090;-1.786;2023-02-26T04:33:38;101734.03;;;-1.97;100.00
53262;BME280;39658;51.090;-1.786;2023-02-26T04:36:05;101733.16;;;-1.91;100.00
53262;BME280;39658;51.090;-1.786;2023-02-26T04:38:34;101741.78;;;-2.02;100.00
53262;BME280;39658;51.090;-1.786;2023-02-26T04:41:00;101748.66;;;-1.98;100.00
53262;BME280;39658;51.090;-1.786;2023-02-26T04:43:27;101748.69;;;-1.91;100.00
53262;BME280;39658;51.090;-1.786;2023-02-26T04:45:54;101750.44;;;-1.81;100.00
53262;BME280;39658;51.090;-1.786;2023-02-26T04:48:21;101747.88;;;-1.64;100.00
53262;BME280;39658;51.090;-1.786;2023-02-26T04:50:48;101753.06;;;-1.61;100.00
53262;BME280;39658;51.090;-1.786;2023-02-26T04:53:15;101746.16;;;-1.45;100.00
53262;BME280;39658;51.090;-1.786;2023-02-26T04:55:43;101746.16;;;-1.27;100.00
53262;BME280;39658;51.090;-1.786;2023-02-26T04:58:10;101752.19;;;-1.21;100.00
53262;BME280;39658;51.090;-1.786;2023-02-26T05:00:36;101753.91;;;-1.17;100.00
53262;BME280;39658;51.090;-1.786;2023-02-26T05:03:04;101759.09;;;-1.23;100.00
53262;BME280;39658;51.090;-1.786;2023-02-26T05:05:31;101752.19;;;-1.28;100.00
53262;BME280;39658;51.090;-1.786;2023-02-26T05:07:58;101754.78;;;-1.34;100.00
53262;BME280;39658;51.090;-1.786;2023-02-26T05:10:25;101770.28;;;-1.48;100.00
53262;BME280;39658;51.090;-1.786;2023-02-26T05:12:53;101763.41;;;-1.47;100.00
53262;BME280;39658;51.090;-1.786;2023-02-26T05:15:20;101768.56;;;-1.59;100.00
53262;BME280;39658;51.090;-1.786;2023-02-26T05:17:46;101774.59;;;-1.64;100.00
53262;BME280;39658;51.090;-1.786;2023-02-26T05:20:13;101770.31;;;-1.65;100.00
53262;BME280;39658;51.090;-1.786;2023-02-26T05:22:40;101774.56;;;-1.76;100.00
53262;BME280;39658;51.090;-1.786;2023-02-26T05:25:08;101783.22;;;-1.68;100.00
53262;BME280;39658;51.090;-1.786;2023-02-26T05:27:36;101780.63;;;-1.68;100.00
53262;BME280;39658;51.090;-1.786;2023-02-26T05:30:06;101784.06;;;-1.70;100.00
53262;BME280;39658;51.090;-1.786;2023-02-26T05:32:33;101787.50;;;-1.70;100.00
53262;BME280;39658;51.090;-1.786;2023-02-26T05:34:59;101790.97;;;-1.71;100.00
53262;BME280;39658;51.090;-1.786;2023-02-26T05:37:26;101790.94;;;-1.80;100.00
53262;BME280;39658;51.090;-1.786;2023-02-26T05:39:53;101789.22;;;-1.79;100.00
53262;BME280;39658;51.090;-1.786;2023-02-26T05:42:20;101792.66;;;-1.76;100.00
53262;BME280;39658;51.090;-1.786;2023-02-26T05:44:46;101797.84;;;-1.73;100.00
53262;BME280;39658;51.090;-1.786;2023-02-26T05:47:14;101800.44;;;-1.73;100.00
53262;BME280;39658;51.090;-1.786;2023-02-26T05:49:41;101799.56;;;-1.84;100.00
53262;BME280;39658;51.090;-1.786;2023-02-26T05:52:08;101804.69;;;-1.90;100.00
53262;BME280;39658;51.090;-1.786;2023-02-26T05:54:35;101806.41;;;-2.00;100.00
53262;BME280;39658;51.090;-1.786;2023-02-26T05:57:02;101804.66;;;-2.06;100.00
53262;BME280;39658;51.090;-1.786;2023-02-26T05:59:29;101812.41;;;-2.06;100.00
53262;BME280;39658;51.090;-1.786;2023-02-26T06:01:55;101814.16;;;-2.00;100.00
53262;BME280;39658;51.090;-1.786;2023-02-26T06:04:24;101812.44;;;-1.98;100.00
53262;BME280;39658;51.090;-1.786;2023-02-26T06:06:50;101812.47;;;-1.90;100.00
53262;BME280;39658;51.090;-1.786;2023-02-26T06:09:17;101819.34;;;-1.91;100.00
53262;BME280;39658;51.090;-1.786;2023-02-26T06:11:44;101813.28;;;-1.93;100.00
53262;BME280;39658;51.090;-1.786;2023-02-26T06:14:10;101819.34;;;-1.97;100.00
53262;BME280;39658;51.090;-1.786;2023-02-26T06:16:37;101822.75;;;-2.00;100.00
53262;BME280;39658;51.090;-1.786;2023-02-26T06:19:04;101830.50;;;-2.06;100.00
53262;BME280;39658;51.090;-1.786;2023-02-26T06:21:32;101829.59;;;-2.12;100.00
53262;BME280;39658;51.090;-1.786;2023-02-26T06:23:59;101834.78;;;-2.14;100.00
53262;BME280;39658;51.090;-1.786;2023-02-26T06:26:26;101832.16;;;-2.20;100.00
53262;BME280;39658;51.090;-1.786;2023-02-26T06:28:52;101826.09;;;-2.27;100.00
53262;BME280;39658;51.090;-1.786;2023-02-26T06:31:19;101839.84;;;-2.32;100.00
53262;BME280;39658;51.090;-1.786;2023-02-26T06:33:46;101836.41;;;-2.33;100.00
53262;BME280;39658;51.090;-1.786;2023-02-26T06:36:13;101838.94;;;-2.44;100.00
53262;BME280;39658;51.090;-1.786;2023-02-26T06:38:41;101836.34;;;-2.47;100.00
53262;BME280;39658;51.090;-1.786;2023-02-26T06:41:09;101835.41;;;-2.54;100.00
53262;BME280;39658;51.090;-1.786;2023-02-26T06:43:37;101842.38;;;-2.42;100.00
53262;BME280;39658;51.090;-1.786;2023-02-26T06:46:04;101841.59;;;-2.30;100.00
53262;BME280;39658;51.090;-1.786;2023-02-26T06:48:31;101842.47;;;-2.25;100.00
53262;BME280;39658;51.090;-1.786;2023-02-26T06:50:58;101850.28;;;-2.14;100.00
53262;BME280;39658;51.090;-1.786;2023-02-26T06:53:25;101850.31;;;-2.06;100.00
53262;BME280;39658;51.090;-1.786;2023-02-26T06:55:53;101860.72;;;-1.92;100.00
53262;BME280;39658;51.090;-1.786;2023-02-26T06:58:20;101859.03;;;-1.78;100.00
53262;BME280;39658;51.090;-1.786;2023-02-26T07:00:48;101865.97;;;-1.66;100.00
53262;BME280;39658;51.090;-1.786;2023-02-26T07:03:16;101877.19;;;-1.58;100.00
53262;BME280;39658;51.090;-1.786;2023-02-26T07:05:44;101874.59;;;-1.58;100.00
53262;BME280;39658;51.090;-1.786;2023-02-26T07:08:11;101882.38;;;-1.58;100.00
53262;BME280;39658;51.090;-1.786;2023-02-26T07:10:39;101885.78;;;-1.68;100.00
53262;BME280;39658;51.090;-1.786;2023-02-26T07:13:07;101883.16;;;-1.76;100.00
53262;BME280;39658;51.090;-1.786;2023-02-26T07:15:34;101878.81;;;-1.88;100.00
53262;BME280;39658;51.090;-1.786;2023-02-26T07:18:01;101886.53;;;-1.99;100.00
53262;BME280;39658;51.090;-1.786;2023-02-26T07:20:28;101889.94;;;-2.04;100.00
53262;BME280;39658;51.090;-1.786;2023-02-26T07:22:55;101889.94;;;-2.06;100.00
53262;BME280;39658;51.090;-1.786;2023-02-26T07:25:21;101904.56;;;-2.09;100.00
53262;BME280;39658;51.090;-1.786;2023-02-26T07:27:49;101914.91;;;-2.06;100.00
53262;BME280;39658;51.090;-1.786;2023-02-26T07:30:17;101915.78;;;-2.01;100.00
53262;BME280;39658;51.090;-1.786;2023-02-26T07:32:44;101917.63;;;-1.83;100.00
53262;BME280;39658;51.090;-1.786;2023-02-26T07:35:11;101913.34;;;-1.70;100.00
53262;BME280;39658;51.090;-1.786;2023-02-26T07:37:38;101920.31;;;-1.49;100.00
53262;BME280;39658;51.090;-1.786;2023-02-26T07:40:06;101928.13;;;-1.26;100.00
53262;BME280;39658;51.090;-1.786;2023-02-26T07:42:33;101920.38;;;-1.23;100.00
53262;BME280;39658;51.090;-1.786;2023-02-26T07:45:00;101923.00;;;-1.17;100.00
53262;BME280;39658;51.090;-1.786;2023-02-26T07:47:29;101933.38;;;-1.01;100.00
53262;BME280;39658;51.090;-1.786;2023-02-26T07:49:56;101938.56;;;-0.91;100.00
53262;BME280;39658;51.090;-1.786;2023-02-26T07:52:22;101941.16;;;-0.91;100.00
53262;BME280;39658;51.090;-1.786;2023-02-26T07:54:49;101929.97;;;-0.71;100.00
53262;BME280;39658;51.090;-1.786;2023-02-26T07:57:16;101935.13;;;-0.66;100.00
53262;BME280;39658;51.090;-1.786;2023-02-26T07:59:43;101940.31;;;-0.56;100.00
53262;BME280;39658;51.090;-1.786;2023-02-26T08:02:10;101942.91;;;-0.45;100.00
53262;BME280;39658;51.090;-1.786;2023-02-26T08:04:39;101946.34;;;-0.29;100.00
53262;BME280;39658;51.090;-1.786;2023-02-26T08:07:07;101937.72;;;-0.26;100.00
53262;BME280;39658;51.090;-1.786;2023-02-26T08:09:33;101943.72;;;-0.18;100.00
53262;BME280;39658;51.090;-1.786;2023-02-26T08:12:00;101939.38;;;-0.13;100.00
53262;BME280;39658;51.090;-1.786;2023-02-26T08:14:27;101948.03;;;-0.02;100.00
53262;BME280;39658;51.090;-1.786;2023-02-26T08:16:54;101963.59;;;-0.02;100.00
53262;BME280;39658;51.090;-1.786;2023-02-26T08:19:21;101963.53;;;0.09;100.00
53262;BME280;39658;51.090;-1.786;2023-02-26T08:21:49;101980.81;;;0.15;100.00
53262;BME280;39658;51.090;-1.786;2023-02-26T08:24:16;101970.41;;;0.33;100.00
53262;BME280;39658;51.090;-1.786;2023-02-26T08:26:43;101979.00;;;0.42;100.00
53262;BME280;39658;51.090;-1.786;2023-02-26T08:29:10;101974.69;;;0.48;100.00
53262;BME280;39658;51.090;-1.786;2023-02-26T08:31:37;101977.19;;;0.70;100.00
53262;BME280;39658;51.090;-1.786;2023-02-26T08:34:04;101971.91;;;0.78;100.00
53262;BME280;39658;51.090;-1.786;2023-02-26T08:36:31;101977.03;;;0.93;100.00
53262;BME280;39658;51.090;-1.786;2023-02-26T08:39:00;101984.75;;;1.07;100.00
53262;BME280;39658;51.090;-1.786;2023-02-26T08:41:27;101978.59;;;1.22;100.00
53262;BME280;39658;51.090;-1.786;2023-02-26T08:43:57;101973.28;;;1.37;100.00
53262;BME280;39658;51.090;-1.786;2023-02-26T08:46:23;101978.38;;;1.51;100.00
53262;BME280;39658;51.090;-1.786;2023-02-26T08:48:50;101979.16;;;1.63;100.00
53262;BME280;39658;51.090;-1.786;2023-02-26T08:51:17;101975.53;;;1.79;100.00
53262;BME280;39658;51.090;-1.786;2023-02-26T08:53:44;101971.09;;;1.89;100.00
53262;BME280;39658;51.090;-1.786;2023-02-26T08:56:13;101972.72;;;2.04;100.00
53262;BME280;39658;51.090;-1.786;2023-02-26T08:58:39;101961.34;;;2.09;100.00
53262;BME280;39658;51.090;-1.786;2023-02-26T09:01:06;101956.91;;;2.21;100.00
53262;BME280;39658;51.090;-1.786;2023-02-26T09:03:33;101962.75;;;2.40;100.00
53262;BME280;39658;51.090;-1.786;2023-02-26T09:06:00;101958.34;;;2.46;100.00
53262;BME280;39658;51.090;-1.786;2023-02-26T09:08:28;101953.75;;;2.64;100.00
53262;BME280;39658;51.090;-1.786;2023-02-26T09:10:58;101952.72;;;2.79;100.00
53262;BME280;39658;51.090;-1.786;2023-02-26T09:13:27;101942.13;;;2.91;100.00
53262;BME280;39658;51.090;-1.786;2023-02-26T09:15:54;101935.78;;;3.08;100.00
53262;BME280;39658;51.090;-1.786;2023-02-26T09:18:21;101934.59;;;3.29;100.00
53262;BME280;39658;51.090;-1.786;2023-02-26T09:20:48;101927.31;;;3.48;100.00
53262;BME280;39658;51.090;-1.786;2023-02-26T09:23:15;101921.81;;;4.54;100.00
53262;BME280;39658;51.090;-1.786;2023-02-26T09:25:41;101912.94;;;6.35;100.00
53262;BME280;39658;51.090;-1.786;2023-02-26T09:28:08;101898.41;;;7.61;100.00
53262;BME280;39658;51.090;-1.786;2023-02-26T09:30:36;101898.56;;;8.54;100.00
53262;BME280;39658;51.090;-1.786;2023-02-26T09:33:03;101899.09;;;9.29;100.00
53262;BME280;39658;51.090;-1.786;2023-02-26T09:35:30;101898.75;;;10.17;100.00
53262;BME280;39658;51.090;-1.786;2023-02-26T09:37:57;101894.19;;;10.97;100.00
53262;BME280;39658;51.090;-1.786;2023-02-26T09:40:29;101898.94;;;11.08;100.00
53262;BME280;39658;51.090;-1.786;2023-02-26T09:43:07;101905.78;;;11.99;98.84
53262;BME280;39658;51.090;-1.786;2023-02-26T09:45:41;101915.81;;;12.42;91.08
53262;BME280;39658;51.090;-1.786;2023-02-26T09:48:11;101920.22;;;12.89;82.69
53262;BME280;39658;51.090;-1.786;2023-02-26T09:50:41;101910.50;;;12.90;77.11
53262;BME280;39658;51.090;-1.786;2023-02-26T09:53:15;101898.97;;;13.68;71.74
53262;BME280;39658;51.090;-1.786;2023-02-26T09:55:45;101916.09;;;12.69;73.97
53262;BME280;39658;51.090;-1.786;2023-02-26T09:58:30;101916.47;;;12.30;76.87
53262;BME280;39658;51.090;-1.786;2023-02-26T10:01:04;101929.03;;;12.58;77.06
53262;BME280;39658;51.090;-1.786;2023-02-26T10:03:47;101926.47;;;13.65;70.84
53262;BME280;39658;51.090;-1.786;2023-02-26T10:06:22;101925.81;;;13.61;66.53
53262;BME280;39658;51.090;-1.786;2023-02-26T10:09:03;101943.88;;;13.08;67.68
53262;BME280;39658;51.090;-1.786;2023-02-26T10:11:37;101942.16;;;12.44;70.19
53262;BME280;39658;51.090;-1.786;2023-02-26T10:14:16;101947.69;;;13.19;67.39
53262;BME280;39658;51.090;-1.786;2023-02-26T10:16:51;101947.28;;;13.57;62.20
53262;BME280;39658;51.090;-1.786;2023-02-26T10:19:21;101947.88;;;13.62;61.33
53262;BME280;39658;51.090;-1.786;2023-02-26T10:21:51;101936.94;;;14.54;58.93
53262;BME280;39658;51.090;-1.786;2023-02-26T10:24:22;101948.19;;;14.72;54.21
53262;BME280;39658;51.090;-1.786;2023-02-26T10:26:53;101955.41;;;13.07;57.23
53262;BME280;39658;51.090;-1.786;2023-02-26T10:29:26;101951.16;;;14.25;56.13
53262;BME280;39658;51.090;-1.786;2023-02-26T10:32:08;101966.75;;;12.12;64.32
53262;BME280;39658;51.090;-1.786;2023-02-26T10:34:46;101966.06;;;10.64;71.91
53262;BME280;39658;51.090;-1.786;2023-02-26T10:37:18;101969.81;;;10.41;85.85
53262;BME280;39658;51.090;-1.786;2023-02-26T10:39:51;101957.25;;;13.68;66.39
53262;BME280;39658;51.090;-1.786;2023-02-26T10:42:22;101962.97;;;13.45;61.53
53262;BME280;39658;51.090;-1.786;2023-02-26T10:44:59;101971.28;;;13.07;66.06
53262;BME280;39658;51.090;-1.786;2023-02-26T10:47:38;101968.28;;;15.31;53.32
53262;BME280;39658;51.090;-1.786;2023-02-26T10:50:11;101965.78;;;13.73;59.83
53262;BME280;39658;51.090;-1.786;2023-02-26T10:52:41;101972.16;;;13.85;60.11
53262;BME280;39658;51.090;-1.786;2023-02-26T10:55:30;101983.66;;;13.69;55.92
53262;BME280;39658;51.090;-1.786;2023-02-26T10:58:03;101977.94;;;14.92;52.13
53262;BME280;39658;51.090;-1.786;2023-02-26T11:00:32;101989.94;;;15.25;51.02
53262;BME280;39658;51.090;-1.786;2023-02-26T11:03:03;101976.81;;;14.24;49.00
53262;BME280;39658;51.090;-1.786;2023-02-26T11:05:31;101997.34;;;13.92;55.69
53262;BME280;39658;51.090;-1.786;2023-02-26T11:08:02;101993.56;;;15.51;48.16
53262;BME280;39658;51.090;-1.786;2023-02-26T11:10:39;101993.78;;;14.79;47.56
53262;BME280;39658;51.090;-1.786;2023-02-26T11:13:06;102007.56;;;13.53;51.36
53262;BME280;39658;51.090;-1.786;2023-02-26T11:15:34;101998.13;;;16.15;43.99
53262;BME280;39658;51.090;-1.786;2023-02-26T11:18:02;101998.09;;;17.52;40.43
53262;BME280;39658;51.090;-1.786;2023-02-26T11:20:33;101997.13;;;17.29;38.16
53262;BME280;39658;51.090;-1.786;2023-02-26T11:23:03;101995.88;;;19.49;36.13
53262;BME280;39658;51.090;-1.786;2023-02-26T11:25:33;101997.31;;;18.32;34.24
53262;BME280;39658;51.090;-1.786;2023-02-26T11:28:03;101998.44;;;19.72;32.68
53262;BME280;39658;51.090;-1.786;2023-02-26T11:30:32;102013.69;;;14.43;40.17
53262;BME280;39658;51.090;-1.786;2023-02-26T11:33:16;102012.53;;;13.43;40.29
53262;BME280;39658;51.090;-1.786;2023-02-26T11:35:43;102033.31;;;10.93;46.81
53262;BME280;39658;51.090;-1.786;2023-02-26T11:38:18;102016.41;;;15.94;40.73
53262;BME280;39658;51.090;-1.786;2023-02-26T11:40:47;102020.69;;;13.55;42.97
53262;BME280;39658;51.090;-1.786;2023-02-26T11:43:18;101998.50;;;17.34;36.73
53262;BME280;39658;51.090;-1.786;2023-02-26T11:45:48;102008.72;;;19.55;33.44
53262;BME280;39658;51.090;-1.786;2023-02-26T11:48:23;102024.13;;;17.48;33.72
53262;BME280;39658;51.090;-1.786;2023-02-26T11:50:54;102012.91;;;19.05;32.34
53262;BME280;39658;51.090;-1.786;2023-02-26T11:53:30;102021.25;;;20.39;31.09
53262;BME280;39658;51.090;-1.786;2023-02-26T11:56:02;102010.84;;;21.57;29.04
53262;BME280;39658;51.090;-1.786;2023-02-26T11:58:35;102017.69;;;21.98;30.18
53262;BME280;39658;51.090;-1.786;2023-02-26T12:01:04;102027.59;;;18.08;31.09
53262;BME280;39658;51.090;-1.786;2023-02-26T12:03:36;102023.31;;;14.01;36.93
53262;BME280;39658;51.090;-1.786;2023-02-26T12:06:06;102031.19;;;11.02;42.09
53262;BME280;39658;51.090;-1.786;2023-02-26T12:08:35;102033.31;;;14.26;39.06
53262;BME280;39658;51.090;-1.786;2023-02-26T12:11:15;102026.28;;;14.40;37.71
53262;BME280;39658;51.090;-1.786;2023-02-26T12:13:59;102032.16;;;14.45;37.49
53262;BME280;39658;51.090;-1.786;2023-02-26T12:16:38;102009.00;;;17.00;33.82
53262;BME280;39658;51.090;-1.786;2023-02-26T12:19:14;102012.53;;;19.21;32.27
53262;BME280;39658;51.090;-1.786;2023-02-26T12:21:59;102010.44;;;19.89;30.64
53262;BME280;39658;51.090;-1.786;2023-02-26T12:24:41;102012.47;;;17.73;30.04
53262;BME280;39658;51.090;-1.786;2023-02-26T12:27:20;102007.75;;;18.35;29.84
53262;BME280;39658;51.090;-1.786;2023-02-26T12:30:02;102011.25;;;18.92;30.10
53262;BME280;39658;51.090;-1.786;2023-02-26T12:32:45;102010.81;;;19.52;29.64
53262;BME280;39658;51.090;-1.786;2023-02-26T12:35:37;102018.19;;;16.58;32.00
53262;BME280;39658;51.090;-1.786;2023-02-26T12:38:19;102036.31;;;16.65;30.21
53262;BME280;39658;51.090;-1.786;2023-02-26T12:41:03;102022.31;;;18.20;28.62
53262;BME280;39658;51.090;-1.786;2023-02-26T12:43:38;102034.06;;;14.86;32.03
53262;BME280;39658;51.090;-1.786;2023-02-26T12:46:14;102026.28;;;13.50;33.41
53262;BME280;39658;51.090;-1.786;2023-02-26T12:48:53;102046.19;;;11.74;36.43